Time;durP1;ratioP1;P1;durP2;ratioP2;P2;SDS_P1;SDS_P2;PMS_P1;PMS_P2;Temp;Humidity;BMP_temperature;BMP_pressure;BME280_temperature;BME280_humidity;BME280_pressure;Samples;Min_cycle;Max_cycle;Signal;HPM_P1;HPM_P2
2022/05/11 06:59:55;;;;;;;4.00;3.38;;;;;;;;;;10537786;28;20035;-87
2022/05/11 07:05:01;;;;;;;3.80;3.05;;;;;;;;;;10517028;28;20033;-86
2022/05/11 07:10:03;;;;;;;4.32;3.22;;;;;;;;;;10513658;28;20099;-84
2022/05/11 07:43:20;;;;;;;11.30;6.72;;;;;;;;;;10519526;28;20020;-85
2022/05/11 07:54:29;;;;;;;7.30;5.13;;;;;;;;;;10508263;28;20021;-86
2022/05/11 08:22:38;;;;;;;4.18;2.63;;;;;;;;;;10384639;28;20042;-86
2022/05/11 08:28:39;;;;;;;4.90;2.60;;;;;;;;;;10305376;28;20037;-85
2022/05/11 09:47:02;;;;;;;3.58;2.72;;;;;;;;;;10296019;28;20039;-86
2022/05/11 09:52:41;;;;;;;11.90;9.00;;;;;;;;;;10421171;28;20075;-85
2022/05/11 09:58:19;;;;;;;8.05;3.38;;;;;;;;;;10463526;28;20028;-87
2022/05/11 10:03:32;;;;;;;6.10;3.22;;;;;;;;;;10447887;28;20097;-87
2022/05/11 10:08:36;;;;;;;5.30;3.03;;;;;;;;;;10469348;28;20041;-86
2022/05/11 10:13:41;;;;;;;5.43;3.40;;;;;;;;;;10460189;28;20033;-86
2022/05/11 10:24:04;;;;;;;7.30;4.20;;;;;;;;;;10476153;28;20029;-86
2022/05/11 10:29:11;;;;;;;5.10;3.85;;;;;;;;;;10461867;28;20140;-85
2022/05/11 10:34:12;;;;;;;4.55;3.25;;;;;;;;;;10465074;28;20032;-85
2022/05/11 10:39:32;;;;;;;7.63;5.55;;;;;;;;;;10464439;28;20040;-85
2022/05/11 10:44:33;;;;;;;;;;;;;;;;;;10459919;28;20424;-85
2022/05/11 10:49:34;;;;;;;6.90;2.58;;;;;;;;;;10459498;28;19913;-86
2022/05/11 10:54:45;;;;;;;8.68;3.30;;;;;;;;;;10458495;28;20485;-85
2022/05/11 10:59:46;;;;;;;9.68;5.72;;;;;;;;;;10458640;28;20033;-84
2022/05/11 11:04:56;;;;;;;6.78;3.67;;;;;;;;;;10461412;28;20452;-85
2022/05/11 11:10:16;;;;;;;4.65;3.50;;;;;;;;;;10457254;28;20052;-85
2022/05/11 11:15:17;;;;;;;;;;;;;;;;;;10455891;28;20025;-85
2022/05/11 11:20:20;;;;;;;5.80;3.10;;;;;;;;;;10456570;28;20430;-87
2022/05/11 11:25:22;;;;;;;5.05;3.13;;;;;;;;;;10471866;28;20021;-87
2022/05/11 11:30:24;;;;;;;5.13;3.20;;;;;;;;;;10448571;28;20111;-86
2022/05/11 11:35:25;;;;;;;4.53;2.83;;;;;;;;;;10449020;28;20032;-88
2022/05/11 11:40:27;;;;;;;3.22;2.47;;;;;;;;;;10446177;28;20056;-85
2022/05/11 11:45:32;;;;;;;4.43;2.70;;;;;;;;;;10446195;28;20033;-86
2022/05/11 11:50:59;;;;;;;8.85;3.10;;;;;;;;;;10494334;28;20074;-86
2022/05/11 11:56:19;;;;;;;4.15;3.00;;;;;;;;;;10482944;28;20032;-86
2022/05/11 12:01:28;;;;;;;4.40;2.90;;;;;;;;;;10507906;28;20100;-86
2022/05/11 12:17:23;;;;;;;4.05;2.35;;;;;;;;;;10510043;28;20060;-85
2022/05/11 12:22:25;;;;;;;5.53;2.30;;;;;;;;;;10495881;28;20145;-85
2022/05/11 12:27:46;;;;;;;7.88;3.00;;;;;;;;;;10503178;28;20024;-86
2022/05/11 13:07:07;;;;;;;3.95;2.83;;;;;;;;;;10443684;28;20512;-85
2022/05/11 13:12:16;;;;;;;4.25;2.10;;;;;;;;;;10418347;28;20034;-86
2022/05/11 14:08:50;;;;;;;4.63;2.63;;;;;;;;;;10439954;28;20038;-86
2022/05/11 14:14:28;;;;;;;5.20;2.42;;;;;;;;;;10413306;28;20034;-86
2022/05/11 16:11:22;;;;;;;5.88;2.50;;;;;;;;;;10387668;28;20050;-86
2022/05/11 16:16:24;;;;;;;7.93;2.85;;;;;;;;;;10372297;28;20513;-86
2022/05/11 18:35:52;;;;;;;4.43;1.67;;;;;;;;;;10069845;29;20077;-87
2022/05/11 18:41:06;;;;;;;;;;;;;;;;;;;;;
2022/05/11 18:46:33;;;;;;;2.85;1.70;;;;;;;;;;10248130;28;20035;-88
2022/05/11 18:57:53;;;;;;;;;;;;;;;;;;;;;
